sensor_id;sensor_type;location;lat;lon;timestamp;P1;durP1;ratioP1;P2;durP2;ratioP2
19219;SDS011;9744;49.364;7.484;2023-08-31T00:00:45;13.35;;;8.90;;
19219;SDS011;9744;49.364;7.484;2023-08-31T00:03:12;13.73;;;8.18;;
19219;SDS011;9744;49.364;7.484;2023-08-31T00:05:40;15.55;;;8.60;;
19219;SDS011;9744;49.364;7.484;2023-08-31T00:08:08;12.80;;;7.80;;
19219;SDS011;9744;49.364;7.484;2023-08-31T00:10:36;14.18;;;8.02;;
19219;SDS011;9744;49.364;7.484;2023-08-31T00:13:05;12.45;;;7.63;;
19219;SDS011;9744;49.364;7.484;2023-08-31T00:15:33;11.25;;;7.55;;
19219;SDS011;9744;49.364;7.484;2023-08-31T00:18:03;15.15;;;7.53;;
19219;SDS011;9744;49.364;7.484;2023-08-31T00:20:30;15.55;;;7.72;;
19219;SDS011;9744;49.364;7.484;2023-08-31T00:22:58;14.18;;;7.70;;
19219;SDS011;9744;49.364;7.484;2023-08-31T00:25:26;15.73;;;7.07;;
19219;SDS011;9744;49.364;7.484;2023-08-31T00:27:56;10.30;;;7.05;;
19219;SDS011;9744;49.364;7.484;2023-08-31T00:30:29;10.43;;;6.43;;
19219;SDS011;9744;49.364;7.484;2023-08-31T00:32:57;12.10;;;6.90;;
19219;SDS011;9744;49.364;7.484;2023-08-31T00:35:28;16.77;;;7.72;;
19219;SDS011;9744;49.364;7.484;2023-08-31T00:37:56;14.10;;;7.05;;
19219;SDS011;9744;49.364;7.484;2023-08-31T00:40:24;13.82;;;6.68;;
19219;SDS011;9744;49.364;7.484;2023-08-31T00:42:51;12.18;;;6.45;;
19219;SDS011;9744;49.364;7.484;2023-08-31T00:45:19;22.63;;;6.25;;
19219;SDS011;9744;49.364;7.484;2023-08-31T00:47:48;14.80;;;5.80;;
19219;SDS011;9744;49.364;7.484;2023-08-31T00:50:16;10.63;;;6.07;;
19219;SDS011;9744;49.364;7.484;2023-08-31T00:52:46;11.10;;;5.63;;
19219;SDS011;9744;49.364;7.484;2023-08-31T00:55:13;11.88;;;6.32;;
19219;SDS011;9744;49.364;7.484;2023-08-31T00:57:43;11.13;;;5.85;;
19219;SDS011;9744;49.364;7.484;2023-08-31T01:00:11;12.90;;;6.10;;
19219;SDS011;9744;49.364;7.484;2023-08-31T01:02:40;19.45;;;6.47;;
19219;SDS011;9744;49.364;7.484;2023-08-31T01:05:18;17.05;;;6.93;;
19219;SDS011;9744;49.364;7.484;2023-08-31T01:07:58;12.40;;;6.65;;
19219;SDS011;9744;49.364;7.484;2023-08-31T01:10:55;20.20;;;6.78;;
19219;SDS011;9744;49.364;7.484;2023-08-31T01:13:31;20.00;;;8.00;;
19219;SDS011;9744;49.364;7.484;2023-08-31T01:16:02;13.00;;;7.05;;
19219;SDS011;9744;49.364;7.484;2023-08-31T01:18:31;13.77;;;6.90;;
19219;SDS011;9744;49.364;7.484;2023-08-31T01:21:02;14.27;;;6.70;;
19219;SDS011;9744;49.364;7.484;2023-08-31T01:23:47;16.38;;;6.75;;
19219;SDS011;9744;49.364;7.484;2023-08-31T01:26:17;15.32;;;7.15;;
19219;SDS011;9744;49.364;7.484;2023-08-31T01:28:44;11.95;;;6.32;;
19219;SDS011;9744;49.364;7.484;2023-08-31T01:31:12;13.25;;;6.38;;
19219;SDS011;9744;49.364;7.484;2023-08-31T01:33:39;10.05;;;6.15;;
19219;SDS011;9744;49.364;7.484;2023-08-31T01:36:07;13.68;;;6.57;;
19219;SDS011;9744;49.364;7.484;2023-08-31T01:38:41;13.70;;;5.75;;
19219;SDS011;9744;49.364;7.484;2023-08-31T01:41:16;15.65;;;6.28;;
19219;SDS011;9744;49.364;7.484;2023-08-31T01:43:46;14.82;;;6.03;;
19219;SDS011;9744;49.364;7.484;2023-08-31T01:46:15;11.80;;;5.82;;
19219;SDS011;9744;49.364;7.484;2023-08-31T01:48:43;14.55;;;5.63;;
19219;SDS011;9744;49.364;7.484;2023-08-31T01:51:10;15.93;;;6.05;;
19219;SDS011;9744;49.364;7.484;2023-08-31T01:53:38;11.68;;;5.70;;
19219;SDS011;9744;49.364;7.484;2023-08-31T01:56:06;10.55;;;5.68;;
19219;SDS011;9744;49.364;7.484;2023-08-31T01:58:35;15.50;;;5.90;;
19219;SDS011;9744;49.364;7.484;2023-08-31T02:01:02;13.35;;;5.80;;
19219;SDS011;9744;49.364;7.484;2023-08-31T02:03:29;16.77;;;6.32;;
19219;SDS011;9744;49.364;7.484;2023-08-31T02:05:57;13.02;;;6.07;;
19219;SDS011;9744;49.364;7.484;2023-08-31T02:08:24;23.02;;;6.07;;
19219;SDS011;9744;49.364;7.484;2023-08-31T02:10:52;14.80;;;6.03;;
19219;SDS011;9744;49.364;7.484;2023-08-31T02:13:22;10.30;;;6.05;;
19219;SDS011;9744;49.364;7.484;2023-08-31T02:15:52;14.35;;;6.75;;
19219;SDS011;9744;49.364;7.484;2023-08-31T02:18:20;17.58;;;5.82;;
19219;SDS011;9744;49.364;7.484;2023-08-31T02:20:48;12.93;;;6.28;;
19219;SDS011;9744;49.364;7.484;2023-08-31T02:23:19;14.95;;;6.05;;
19219;SDS011;9744;49.364;7.484;2023-08-31T02:25:46;12.85;;;5.75;;
19219;SDS011;9744;49.364;7.484;2023-08-31T02:28:14;11.45;;;6.13;;
19219;SDS011;9744;49.364;7.484;2023-08-31T02:30:43;8.98;;;5.65;;
19219;SDS011;9744;49.364;7.484;2023-08-31T02:33:14;11.52;;;5.45;;
19219;SDS011;9744;49.364;7.484;2023-08-31T02:35:41;16.48;;;6.00;;
19219;SDS011;9744;49.364;7.484;2023-08-31T02:38:09;15.57;;;6.20;;
19219;SDS011;9744;49.364;7.484;2023-08-31T02:40:36;13.30;;;5.50;;
19219;SDS011;9744;49.364;7.484;2023-08-31T02:43:07;10.52;;;5.85;;
19219;SDS011;9744;49.364;7.484;2023-08-31T02:45:34;23.02;;;6.70;;
19219;SDS011;9744;49.364;7.484;2023-08-31T02:48:01;13.20;;;5.63;;
19219;SDS011;9744;49.364;7.484;2023-08-31T02:50:33;10.98;;;5.63;;
19219;SDS011;9744;49.364;7.484;2023-08-31T02:53:01;11.35;;;5.28;;
19219;SDS011;9744;49.364;7.484;2023-08-31T02:55:28;10.48;;;5.32;;
19219;SDS011;9744;49.364;7.484;2023-08-31T02:57:58;14.38;;;4.57;;
19219;SDS011;9744;49.364;7.484;2023-08-31T03:00:26;12.30;;;4.32;;
19219;SDS011;9744;49.364;7.484;2023-08-31T03:02:53;12.85;;;5.40;;
19219;SDS011;9744;49.364;7.484;2023-08-31T03:05:21;12.23;;;5.53;;
19219;SDS011;9744;49.364;7.484;2023-08-31T03:07:50;11.80;;;5.68;;
19219;SDS011;9744;49.364;7.484;2023-08-31T03:10:17;9.52;;;5.20;;
19219;SDS011;9744;49.364;7.484;2023-08-31T03:12:45;16.95;;;5.43;;
19219;SDS011;9744;49.364;7.484;2023-08-31T03:15:14;10.80;;;5.07;;
19219;SDS011;9744;49.364;7.484;2023-08-31T03:17:43;13.45;;;5.38;;
19219;SDS011;9744;49.364;7.484;2023-08-31T03:20:10;13.88;;;5.47;;
19219;SDS011;9744;49.364;7.484;2023-08-31T03:22:38;13.23;;;5.60;;
19219;SDS011;9744;49.364;7.484;2023-08-31T03:25:07;12.95;;;5.60;;
19219;SDS011;9744;49.364;7.484;2023-08-31T03:27:34;16.95;;;5.43;;
19219;SDS011;9744;49.364;7.484;2023-08-31T03:30:02;14.35;;;5.60;;
19219;SDS011;9744;49.364;7.484;2023-08-31T03:32:30;14.07;;;4.93;;
19219;SDS011;9744;49.364;7.484;2023-08-31T03:34:57;15.57;;;5.43;;
19219;SDS011;9744;49.364;7.484;2023-08-31T03:37:24;9.20;;;5.05;;
19219;SDS011;9744;49.364;7.484;2023-08-31T03:39:52;17.67;;;5.30;;
19219;SDS011;9744;49.364;7.484;2023-08-31T03:42:21;15.93;;;5.45;;
19219;SDS011;9744;49.364;7.484;2023-08-31T03:44:48;11.82;;;4.93;;
19219;SDS011;9744;49.364;7.484;2023-08-31T03:47:17;12.68;;;5.28;;
19219;SDS011;9744;49.364;7.484;2023-08-31T03:49:44;18.83;;;5.15;;
19219;SDS011;9744;49.364;7.484;2023-08-31T03:52:14;22.05;;;5.25;;
19219;SDS011;9744;49.364;7.484;2023-08-31T03:54:41;12.98;;;4.97;;
19219;SDS011;9744;49.364;7.484;2023-08-31T03:57:08;15.98;;;5.50;;
19219;SDS011;9744;49.364;7.484;2023-08-31T03:59:37;18.38;;;5.03;;
19219;SDS011;9744;49.364;7.484;2023-08-31T04:02:04;13.50;;;5.00;;
19219;SDS011;9744;49.364;7.484;2023-08-31T04:04:31;9.30;;;4.88;;
19219;SDS011;9744;49.364;7.484;2023-08-31T04:06:59;8.82;;;4.32;;
19219;SDS011;9744;49.364;7.484;2023-08-31T04:09:27;11.38;;;4.47;;
19219;SDS011;9744;49.364;7.484;2023-08-31T04:11:55;12.25;;;4.75;;
19219;SDS011;9744;49.364;7.484;2023-08-31T04:14:22;13.88;;;4.68;;
19219;SDS011;9744;49.364;7.484;2023-08-31T04:16:51;11.57;;;4.38;;
19219;SDS011;9744;49.364;7.484;2023-08-31T04:19:18;11.38;;;4.13;;
19219;SDS011;9744;49.364;7.484;2023-08-31T04:21:46;12.27;;;4.68;;
19219;SDS011;9744;49.364;7.484;2023-08-31T04:24:13;10.57;;;4.43;;
19219;SDS011;9744;49.364;7.484;2023-08-31T04:26:41;11.77;;;4.95;;
19219;SDS011;9744;49.364;7.484;2023-08-31T04:29:10;13.35;;;4.97;;
19219;SDS011;9744;49.364;7.484;2023-08-31T04:31:37;9.93;;;4.80;;
19219;SDS011;9744;49.364;7.484;2023-08-31T04:34:06;13.70;;;4.85;;
19219;SDS011;9744;49.364;7.484;2023-08-31T04:36:34;9.57;;;4.45;;
19219;SDS011;9744;49.364;7.484;2023-08-31T04:39:01;11.10;;;4.68;;
19219;SDS011;9744;49.364;7.484;2023-08-31T04:41:30;11.00;;;4.00;;
19219;SDS011;9744;49.364;7.484;2023-08-31T04:43:57;9.38;;;4.80;;
19219;SDS011;9744;49.364;7.484;2023-08-31T04:46:24;12.15;;;5.03;;
19219;SDS011;9744;49.364;7.484;2023-08-31T04:48:52;17.30;;;4.90;;
19219;SDS011;9744;49.364;7.484;2023-08-31T04:54:07;13.07;;;5.35;;
19219;SDS011;9744;49.364;7.484;2023-08-31T04:56:35;12.73;;;4.68;;
19219;SDS011;9744;49.364;7.484;2023-08-31T04:59:03;14.82;;;5.60;;
19219;SDS011;9744;49.364;7.484;2023-08-31T05:01:30;12.45;;;5.25;;
19219;SDS011;9744;49.364;7.484;2023-08-31T05:03:57;14.25;;;5.10;;
19219;SDS011;9744;49.364;7.484;2023-08-31T05:06:25;10.77;;;4.50;;
19219;SDS011;9744;49.364;7.484;2023-08-31T05:08:54;16.10;;;4.68;;
19219;SDS011;9744;49.364;7.484;2023-08-31T05:11:22;11.98;;;5.32;;
19219;SDS011;9744;49.364;7.484;2023-08-31T05:13:48;13.45;;;5.15;;
19219;SDS011;9744;49.364;7.484;2023-08-31T05:16:15;9.07;;;4.82;;
19219;SDS011;9744;49.364;7.484;2023-08-31T05:18:42;10.43;;;5.22;;
19219;SDS011;9744;49.364;7.484;2023-08-31T05:21:10;12.40;;;5.45;;
19219;SDS011;9744;49.364;7.484;2023-08-31T05:23:37;10.85;;;5.13;;
19219;SDS011;9744;49.364;7.484;2023-08-31T05:26:06;14.48;;;5.43;;
19219;SDS011;9744;49.364;7.484;2023-08-31T05:28:33;11.60;;;5.40;;
19219;SDS011;9744;49.364;7.484;2023-08-31T05:31:01;14.23;;;5.38;;
19219;SDS011;9744;49.364;7.484;2023-08-31T05:33:29;10.40;;;4.88;;
19219;SDS011;9744;49.364;7.484;2023-08-31T05:36:00;11.05;;;5.20;;
19219;SDS011;9744;49.364;7.484;2023-08-31T05:38:29;9.13;;;4.88;;
19219;SDS011;9744;49.364;7.484;2023-08-31T05:41:03;18.38;;;5.25;;
19219;SDS011;9744;49.364;7.484;2023-08-31T05:43:33;13.48;;;4.55;;
19219;SDS011;9744;49.364;7.484;2023-08-31T05:46:00;11.60;;;4.82;;
19219;SDS011;9744;49.364;7.484;2023-08-31T05:48:28;11.13;;;4.70;;
19219;SDS011;9744;49.364;7.484;2023-08-31T05:50:56;10.93;;;4.45;;
19219;SDS011;9744;49.364;7.484;2023-08-31T05:53:23;12.43;;;4.65;;
19219;SDS011;9744;49.364;7.484;2023-08-31T05:55:51;10.07;;;4.35;;
19219;SDS011;9744;49.364;7.484;2023-08-31T05:58:29;16.98;;;4.68;;
19219;SDS011;9744;49.364;7.484;2023-08-31T06:00:57;9.23;;;4.40;;
19219;SDS011;9744;49.364;7.484;2023-08-31T06:03:24;10.80;;;5.35;;
19219;SDS011;9744;49.364;7.484;2023-08-31T06:05:52;15.93;;;5.30;;
19219;SDS011;9744;49.364;7.484;2023-08-31T06:08:19;7.57;;;4.45;;
19219;SDS011;9744;49.364;7.484;2023-08-31T06:10:46;11.38;;;4.63;;
19219;SDS011;9744;49.364;7.484;2023-08-31T06:13:14;10.07;;;4.03;;
19219;SDS011;9744;49.364;7.484;2023-08-31T06:15:42;9.25;;;4.45;;
19219;SDS011;9744;49.364;7.484;2023-08-31T06:18:10;7.68;;;4.20;;
19219;SDS011;9744;49.364;7.484;2023-08-31T06:20:37;11.73;;;4.60;;
19219;SDS011;9744;49.364;7.484;2023-08-31T06:23:05;11.02;;;4.68;;
19219;SDS011;9744;49.364;7.484;2023-08-31T06:25:32;11.32;;;5.03;;
19219;SDS011;9744;49.364;7.484;2023-08-31T06:27:59;13.18;;;4.70;;
19219;SDS011;9744;49.364;7.484;2023-08-31T06:30:26;13.20;;;5.32;;
19219;SDS011;9744;49.364;7.484;2023-08-31T06:32:55;16.45;;;5.07;;
19219;SDS011;9744;49.364;7.484;2023-08-31T06:35:23;10.07;;;4.80;;
19219;SDS011;9744;49.364;7.484;2023-08-31T06:40:47;11.98;;;4.40;;
19219;SDS011;9744;49.364;7.484;2023-08-31T06:43:20;24.50;;;6.13;;
19219;SDS011;9744;49.364;7.484;2023-08-31T06:45:47;12.20;;;4.30;;
19219;SDS011;9744;49.364;7.484;2023-08-31T06:48:18;10.05;;;4.53;;
19219;SDS011;9744;49.364;7.484;2023-08-31T06:50:46;10.50;;;4.70;;
19219;SDS011;9744;49.364;7.484;2023-08-31T06:53:14;9.40;;;3.65;;
19219;SDS011;9744;49.364;7.484;2023-08-31T06:55:41;15.52;;;3.85;;
19219;SDS011;9744;49.364;7.484;2023-08-31T06:58:09;13.43;;;3.92;;
19219;SDS011;9744;49.364;7.484;2023-08-31T07:00:36;11.93;;;3.40;;
19219;SDS011;9744;49.364;7.484;2023-08-31T07:03:04;11.90;;;3.70;;
19219;SDS011;9744;49.364;7.484;2023-08-31T07:05:34;7.72;;;3.38;;
19219;SDS011;9744;49.364;7.484;2023-08-31T07:08:02;8.52;;;3.17;;
19219;SDS011;9744;49.364;7.484;2023-08-31T07:10:29;8.68;;;2.80;;
19219;SDS011;9744;49.364;7.484;2023-08-31T07:12:57;11.50;;;2.95;;
19219;SDS011;9744;49.364;7.484;2023-08-31T07:15:24;9.95;;;2.83;;
19219;SDS011;9744;49.364;7.484;2023-08-31T07:17:52;6.15;;;2.88;;
19219;SDS011;9744;49.364;7.484;2023-08-31T07:20:19;12.75;;;2.67;;
19219;SDS011;9744;49.364;7.484;2023-08-31T07:22:48;8.75;;;2.25;;
19219;SDS011;9744;49.364;7.484;2023-08-31T07:25:15;6.15;;;2.50;;
19219;SDS011;9744;49.364;7.484;2023-08-31T07:27:43;6.47;;;2.95;;
19219;SDS011;9744;49.364;7.484;2023-08-31T07:30:11;6.72;;;2.35;;
19219;SDS011;9744;49.364;7.484;2023-08-31T07:32:39;7.35;;;2.70;;
19219;SDS011;9744;49.364;7.484;2023-08-31T07:35:07;10.15;;;2.95;;
19219;SDS011;9744;49.364;7.484;2023-08-31T07:40:29;9.25;;;2.72;;
19219;SDS011;9744;49.364;7.484;2023-08-31T07:42:57;9.57;;;3.10;;
19219;SDS011;9744;49.364;7.484;2023-08-31T07:45:24;7.05;;;2.53;;
19219;SDS011;9744;49.364;7.484;2023-08-31T07:51:09;7.47;;;2.50;;
19219;SDS011;9744;49.364;7.484;2023-08-31T07:53:39;8.50;;;2.42;;
19219;SDS011;9744;49.364;7.484;2023-08-31T07:56:06;9.68;;;2.25;;
19219;SDS011;9744;49.364;7.484;2023-08-31T07:58:33;10.73;;;2.53;;
19219;SDS011;9744;49.364;7.484;2023-08-31T08:01:01;9.18;;;2.03;;
19219;SDS011;9744;49.364;7.484;2023-08-31T08:03:30;9.95;;;2.15;;
19219;SDS011;9744;49.364;7.484;2023-08-31T08:05:58;10.85;;;2.10;;
19219;SDS011;9744;49.364;7.484;2023-08-31T08:08:27;7.35;;;2.40;;
19219;SDS011;9744;49.364;7.484;2023-08-31T08:10:55;13.75;;;2.60;;
19219;SDS011;9744;49.364;7.484;2023-08-31T08:13:23;6.28;;;2.10;;
19219;SDS011;9744;49.364;7.484;2023-08-31T08:15:50;7.35;;;2.38;;
19219;SDS011;9744;49.364;7.484;2023-08-31T08:18:17;4.50;;;2.10;;
19219;SDS011;9744;49.364;7.484;2023-08-31T08:20:46;6.88;;;2.10;;
19219;SDS011;9744;49.364;7.484;2023-08-31T08:23:14;4.55;;;1.80;;
19219;SDS011;9744;49.364;7.484;2023-08-31T08:25:42;5.88;;;2.20;;
19219;SDS011;9744;49.364;7.484;2023-08-31T08:28:11;7.55;;;2.58;;
19219;SDS011;9744;49.364;7.484;2023-08-31T08:30:43;4.18;;;1.88;;
19219;SDS011;9744;49.364;7.484;2023-08-31T08:33:10;4.03;;;1.80;;
19219;SDS011;9744;49.364;7.484;2023-08-31T08:35:37;6.75;;;1.80;;
19219;SDS011;9744;49.364;7.484;2023-08-31T08:38:05;5.72;;;1.55;;
19219;SDS011;9744;49.364;7.484;2023-08-31T08:40:32;5.50;;;1.70;;
19219;SDS011;9744;49.364;7.484;2023-08-31T08:43:00;9.60;;;2.03;;
19219;SDS011;9744;49.364;7.484;2023-08-31T08:45:35;3.95;;;1.90;;
19219;SDS011;9744;49.364;7.484;2023-08-31T08:48:05;9.40;;;2.22;;
19219;SDS011;9744;49.364;7.484;2023-08-31T08:50:33;7.45;;;2.22;;
19219;SDS011;9744;49.364;7.484;2023-08-31T08:53:02;6.07;;;1.80;;
19219;SDS011;9744;49.364;7.484;2023-08-31T08:55:29;3.25;;;1.92;;
19219;SDS011;9744;49.364;7.484;2023-08-31T08:57:57;6.72;;;2.03;;
19219;SDS011;9744;49.364;7.484;2023-08-31T09:00:26;6.20;;;1.98;;
19219;SDS011;9744;49.364;7.484;2023-08-31T09:02:56;3.22;;;1.50;;
19219;SDS011;9744;49.364;7.484;2023-08-31T09:05:24;5.78;;;2.35;;
19219;SDS011;9744;49.364;7.484;2023-08-31T09:08:01;7.00;;;1.90;;
19219;SDS011;9744;49.364;7.484;2023-08-31T09:10:33;10.80;;;2.08;;
19219;SDS011;9744;49.364;7.484;2023-08-31T09:13:04;6.20;;;1.98;;
19219;SDS011;9744;49.364;7.484;2023-08-31T09:15:38;5.43;;;2.08;;
19219;SDS011;9744;49.364;7.484;2023-08-31T09:18:09;11.02;;;2.45;;
19219;SDS011;9744;49.364;7.484;2023-08-31T09:20:44;5.32;;;1.83;;
19219;SDS011;9744;49.364;7.484;2023-08-31T09:23:13;5.50;;;1.73;;
19219;SDS011;9744;49.364;7.484;2023-08-31T09:25:41;7.28;;;1.80;;
19219;SDS011;9744;49.364;7.484;2023-08-31T09:28:09;6.18;;;2.13;;
19219;SDS011;9744;49.364;7.484;2023-08-31T09:30:38;8.40;;;2.08;;
19219;SDS011;9744;49.364;7.484;2023-08-31T09:33:06;7.55;;;1.65;;
19219;SDS011;9744;49.364;7.484;2023-08-31T09:35:39;10.00;;;1.77;;
19219;SDS011;9744;49.364;7.484;2023-08-31T09:38:07;9.85;;;2.17;;
19219;SDS011;9744;49.364;7.484;2023-08-31T09:40:36;7.78;;;1.83;;
19219;SDS011;9744;49.364;7.484;2023-08-31T09:43:03;10.70;;;1.80;;
19219;SDS011;9744;49.364;7.484;2023-08-31T09:45:31;11.80;;;2.00;;
19219;SDS011;9744;49.364;7.484;2023-08-31T09:48:00;8.77;;;1.67;;
19219;SDS011;9744;49.364;7.484;2023-08-31T09:50:30;11.32;;;2.00;;
19219;SDS011;9744;49.364;7.484;2023-08-31T09:53:00;10.13;;;1.98;;
19219;SDS011;9744;49.364;7.484;2023-08-31T09:55:30;6.38;;;2.22;;
19219;SDS011;9744;49.364;7.484;2023-08-31T09:58:00;13.88;;;2.33;;
19219;SDS011;9744;49.364;7.484;2023-08-31T10:00:29;9.43;;;2.00;;
19219;SDS011;9744;49.364;7.484;2023-08-31T10:02:58;12.98;;;2.42;;
19219;SDS011;9744;49.364;7.484;2023-08-31T10:05:27;8.43;;;2.40;;
19219;SDS011;9744;49.364;7.484;2023-08-31T10:07:56;12.70;;;2.33;;
19219;SDS011;9744;49.364;7.484;2023-08-31T10:10:26;10.15;;;2.40;;
19219;SDS011;9744;49.364;7.484;2023-08-31T10:12:54;7.60;;;2.33;;
19219;SDS011;9744;49.364;7.484;2023-08-31T10:15:22;5.63;;;1.75;;
19219;SDS011;9744;49.364;7.484;2023-08-31T10:17:52;6.70;;;2.00;;
19219;SDS011;9744;49.364;7.484;2023-08-31T10:20:20;8.57;;;2.10;;
19219;SDS011;9744;49.364;7.484;2023-08-31T10:22:49;6.97;;;2.20;;
19219;SDS011;9744;49.364;7.484;2023-08-31T10:25:16;6.97;;;2.35;;
19219;SDS011;9744;49.364;7.484;2023-08-31T10:27:44;6.28;;;2.17;;
19219;SDS011;9744;49.364;7.484;2023-08-31T10:30:20;8.07;;;3.17;;
19219;SDS011;9744;49.364;7.484;2023-08-31T10:35:50;10.25;;;2.13;;
19219;SDS011;9744;49.364;7.484;2023-08-31T10:38:27;7.95;;;2.33;;
19219;SDS011;9744;49.364;7.484;2023-08-31T10:41:03;6.57;;;2.17;;
19219;SDS011;9744;49.364;7.484;2023-08-31T10:43:46;5.68;;;2.05;;
19219;SDS011;9744;49.364;7.484;2023-08-31T10:46:24;12.18;;;2.92;;
19219;SDS011;9744;49.364;7.484;2023-08-31T10:48:54;10.48;;;2.42;;
19219;SDS011;9744;49.364;7.484;2023-08-31T10:51:23;9.55;;;2.30;;
19219;SDS011;9744;49.364;7.484;2023-08-31T10:53:54;10.80;;;2.22;;
19219;SDS011;9744;49.364;7.484;2023-08-31T10:57:00;8.38;;;2.50;;
19219;SDS011;9744;49.364;7.484;2023-08-31T10:59:41;8.85;;;2.45;;
19219;SDS011;9744;49.364;7.484;2023-08-31T11:02:28;5.03;;;1.98;;
19219;SDS011;9744;49.364;7.484;2023-08-31T11:05:08;7.15;;;2.38;;
19219;SDS011;9744;49.364;7.484;2023-08-31T11:07:37;9.18;;;2.13;;
19219;SDS011;9744;49.364;7.484;2023-08-31T11:10:08;9.30;;;1.95;;
19219;SDS011;9744;49.364;7.484;2023-08-31T11:12:39;7.43;;;2.78;;
19219;SDS011;9744;49.364;7.484;2023-08-31T11:15:07;15.75;;;2.60;;
19219;SDS011;9744;49.364;7.484;2023-08-31T11:17:37;14.55;;;2.35;;
19219;SDS011;9744;49.364;7.484;2023-08-31T11:20:06;6.95;;;2.20;;
19219;SDS011;9744;49.364;7.484;2023-08-31T11:22:34;10.82;;;2.78;;
19219;SDS011;9744;49.364;7.484;2023-08-31T11:25:06;8.07;;;2.45;;
19219;SDS011;9744;49.364;7.484;2023-08-31T11:27:39;7.22;;;2.03;;
19219;SDS011;9744;49.364;7.484;2023-08-31T11:30:11;10.15;;;2.42;;
19219;SDS011;9744;49.364;7.484;2023-08-31T11:32:43;6.38;;;2.22;;
19219;SDS011;9744;49.364;7.484;2023-08-31T11:35:11;8.80;;;1.90;;
19219;SDS011;9744;49.364;7.484;2023-08-31T11:37:40;8.35;;;3.80;;
19219;SDS011;9744;49.364;7.484;2023-08-31T11:40:11;19.10;;;3.75;;
19219;SDS011;9744;49.364;7.484;2023-08-31T11:42:40;11.73;;;2.50;;
19219;SDS011;9744;49.364;7.484;2023-08-31T11:45:10;8.77;;;2.13;;
19219;SDS011;9744;49.364;7.484;2023-08-31T11:47:44;10.05;;;2.10;;
19219;SDS011;9744;49.364;7.484;2023-08-31T11:50:18;7.15;;;1.75;;
19219;SDS011;9744;49.364;7.484;2023-08-31T11:52:46;8.18;;;2.00;;
19219;SDS011;9744;49.364;7.484;2023-08-31T11:55:15;4.93;;;1.75;;
19219;SDS011;9744;49.364;7.484;2023-08-31T11:57:47;7.00;;;2.00;;
19219;SDS011;9744;49.364;7.484;2023-08-31T12:00:16;3.53;;;1.55;;
19219;SDS011;9744;49.364;7.484;2023-08-31T12:02:45;6.13;;;1.83;;
19219;SDS011;9744;49.364;7.484;2023-08-31T12:05:14;9.70;;;2.03;;
19219;SDS011;9744;49.364;7.484;2023-08-31T12:07:42;5.45;;;1.90;;
19219;SDS011;9744;49.364;7.484;2023-08-31T12:10:09;5.57;;;1.90;;
19219;SDS011;9744;49.364;7.484;2023-08-31T12:12:40;9.07;;;2.20;;
19219;SDS011;9744;49.364;7.484;2023-08-31T12:15:08;8.00;;;2.00;;
19219;SDS011;9744;49.364;7.484;2023-08-31T12:17:37;8.73;;;2.28;;
19219;SDS011;9744;49.364;7.484;2023-08-31T12:20:06;10.23;;;2.60;;
19219;SDS011;9744;49.364;7.484;2023-08-31T12:22:35;5.85;;;2.13;;
19219;SDS011;9744;49.364;7.484;2023-08-31T12:25:03;6.28;;;2.22;;
19219;SDS011;9744;49.364;7.484;2023-08-31T12:27:30;10.18;;;3.55;;
19219;SDS011;9744;49.364;7.484;2023-08-31T12:29:59;10.80;;;2.22;;
19219;SDS011;9744;49.364;7.484;2023-08-31T12:32:27;7.68;;;2.33;;
19219;SDS011;9744;49.364;7.484;2023-08-31T12:34:54;7.18;;;2.08;;
19219;SDS011;9744;49.364;7.484;2023-08-31T12:37:21;9.98;;;2.25;;
19219;SDS011;9744;49.364;7.484;2023-08-31T12:39:48;7.65;;;2.10;;
19219;SDS011;9744;49.364;7.484;2023-08-31T12:42:16;6.85;;;2.05;;
19219;SDS011;9744;49.364;7.484;2023-08-31T12:44:43;9.68;;;2.05;;
19219;SDS011;9744;49.364;7.484;2023-08-31T12:47:12;10.05;;;2.20;;
19219;SDS011;9744;49.364;7.484;2023-08-31T12:49:39;6.80;;;2.10;;
19219;SDS011;9744;49.364;7.484;2023-08-31T12:52:07;8.43;;;2.00;;
19219;SDS011;9744;49.364;7.484;2023-08-31T12:54:34;6.03;;;2.10;;
19219;SDS011;9744;49.364;7.484;2023-08-31T12:57:01;4.80;;;2.00;;
19219;SDS011;9744;49.364;7.484;2023-08-31T12:59:30;6.38;;;1.90;;
19219;SDS011;9744;49.364;7.484;2023-08-31T13:01:57;9.13;;;1.92;;
19219;SDS011;9744;49.364;7.484;2023-08-31T13:04:26;6.28;;;1.85;;
19219;SDS011;9744;49.364;7.484;2023-08-31T13:06:54;7.70;;;2.00;;
19219;SDS011;9744;49.364;7.484;2023-08-31T13:09:21;7.95;;;2.03;;
19219;SDS011;9744;49.364;7.484;2023-08-31T13:11:49;9.63;;;1.98;;
19219;SDS011;9744;49.364;7.484;2023-08-31T13:14:16;7.20;;;2.17;;
19219;SDS011;9744;49.364;7.484;2023-08-31T13:16:43;5.72;;;2.22;;
19219;SDS011;9744;49.364;7.484;2023-08-31T13:19:11;6.47;;;2.30;;
19219;SDS011;9744;49.364;7.484;2023-08-31T13:21:39;6.13;;;2.30;;
19219;SDS011;9744;49.364;7.484;2023-08-31T13:24:06;9.35;;;2.55;;
19219;SDS011;9744;49.364;7.484;2023-08-31T13:26:34;8.23;;;2.50;;
19219;SDS011;9744;49.364;7.484;2023-08-31T13:29:02;8.98;;;2.63;;
19219;SDS011;9744;49.364;7.484;2023-08-31T13:31:30;6.75;;;2.10;;
19219;SDS011;9744;49.364;7.484;2023-08-31T13:33:59;8.23;;;2.30;;
19219;SDS011;9744;49.364;7.484;2023-08-31T13:36:27;8.32;;;2.88;;
19219;SDS011;9744;49.364;7.484;2023-08-31T13:38:55;8.25;;;2.40;;
19219;SDS011;9744;49.364;7.484;2023-08-31T13:41:23;7.85;;;2.10;;
19219;SDS011;9744;49.364;7.484;2023-08-31T13:43:50;7.40;;;2.33;;
19219;SDS011;9744;49.364;7.484;2023-08-31T13:46:17;11.23;;;2.00;;
19219;SDS011;9744;49.364;7.484;2023-08-31T13:48:44;10.00;;;2.58;;
19219;SDS011;9744;49.364;7.484;2023-08-31T13:51:13;7.03;;;2.38;;
19219;SDS011;9744;49.364;7.484;2023-08-31T13:53:41;8.55;;;2.30;;
19219;SDS011;9744;49.364;7.484;2023-08-31T13:56:09;7.32;;;1.77;;
19219;SDS011;9744;49.364;7.484;2023-08-31T13:58:37;10.05;;;2.22;;
19219;SDS011;9744;49.364;7.484;2023-08-31T14:01:06;6.65;;;2.35;;
19219;SDS011;9744;49.364;7.484;2023-08-31T14:03:33;9.52;;;2.00;;
19219;SDS011;9744;49.364;7.484;2023-08-31T14:06:01;6.90;;;2.08;;
19219;SDS011;9744;49.364;7.484;2023-08-31T14:08:29;6.38;;;2.22;;
19219;SDS011;9744;49.364;7.484;2023-08-31T14:10:56;11.02;;;2.78;;
19219;SDS011;9744;49.364;7.484;2023-08-31T14:13:25;9.88;;;2.10;;
19219;SDS011;9744;49.364;7.484;2023-08-31T14:15:53;6.35;;;1.95;;
19219;SDS011;9744;49.364;7.484;2023-08-31T14:18:21;9.63;;;2.13;;
19219;SDS011;9744;49.364;7.484;2023-08-31T14:20:50;9.50;;;2.08;;
19219;SDS011;9744;49.364;7.484;2023-08-31T14:23:18;9.65;;;2.70;;
19219;SDS011;9744;49.364;7.484;2023-08-31T14:25:45;8.43;;;2.30;;
19219;SDS011;9744;49.364;7.484;2023-08-31T14:28:12;6.47;;;2.40;;
19219;SDS011;9744;49.364;7.484;2023-08-31T14:30:41;8.73;;;1.92;;
19219;SDS011;9744;49.364;7.484;2023-08-31T14:33:08;6.38;;;1.88;;
19219;SDS011;9744;49.364;7.484;2023-08-31T14:35:38;6.90;;;2.20;;
19219;SDS011;9744;49.364;7.484;2023-08-31T14:38:06;6.63;;;2.25;;
19219;SDS011;9744;49.364;7.484;2023-08-31T14:40:33;11.38;;;2.15;;
19219;SDS011;9744;49.364;7.484;2023-08-31T14:43:05;6.60;;;2.00;;
19219;SDS011;9744;49.364;7.484;2023-08-31T14:45:32;8.77;;;2.50;;
19219;SDS011;9744;49.364;7.484;2023-08-31T14:48:02;8.38;;;2.63;;
19219;SDS011;9744;49.364;7.484;2023-08-31T14:50:29;7.93;;;2.13;;
19219;SDS011;9744;49.364;7.484;2023-08-31T14:52:57;11.27;;;2.30;;
19219;SDS011;9744;49.364;7.484;2023-08-31T14:55:25;7.70;;;2.00;;
19219;SDS011;9744;49.364;7.484;2023-08-31T14:57:52;8.63;;;2.33;;
19219;SDS011;9744;49.364;7.484;2023-08-31T15:00:19;8.43;;;2.05;;
19219;SDS011;9744;49.364;7.484;2023-08-31T15:02:46;8.27;;;2.30;;
19219;SDS011;9744;49.364;7.484;2023-08-31T15:05:15;7.25;;;2.70;;
19219;SDS011;9744;49.364;7.484;2023-08-31T15:07:42;9.15;;;2.35;;
19219;SDS011;9744;49.364;7.484;2023-08-31T15:10:10;8.15;;;2.05;;
19219;SDS011;9744;49.364;7.484;2023-08-31T15:12:37;6.78;;;2.03;;
19219;SDS011;9744;49.364;7.484;2023-08-31T15:15:05;8.00;;;2.42;;
19219;SDS011;9744;49.364;7.484;2023-08-31T15:17:33;5.85;;;2.28;;
19219;SDS011;9744;49.364;7.484;2023-08-31T15:20:00;6.97;;;2.30;;